createdAt,value
2023-02-02T00:00:57.880Z,473.00
2023-02-02T00:01:57.977Z,474.00
2023-02-02T00:02:58.071Z,475.00
2023-02-02T00:03:58.113Z,475.00
2023-02-02T00:04:58.128Z,474.00
2023-02-02T00:05:58.200Z,475.00
2023-02-02T00:06:58.269Z,474.00
2023-02-02T00:07:58.321Z,474.00
2023-02-02T00:08:58.387Z,474.00
2023-02-02T00:09:58.439Z,473.00
2023-02-02T00:10:58.498Z,473.00
2023-02-02T00:11:58.571Z,473.00
2023-02-02T00:12:58.594Z,472.00
2023-02-02T00:13:58.644Z,474.00
2023-02-02T00:14:58.663Z,474.00
2023-02-02T00:15:58.756Z,475.00
2023-02-02T00:16:58.794Z,475.00
2023-02-02T00:17:58.845Z,476.00
2023-02-02T00:18:58.912Z,473.00
2023-02-02T00:19:58.973Z,472.00
2023-02-02T00:20:59.017Z,473.00
2023-02-02T00:21:59.080Z,473.00
2023-02-02T00:22:59.137Z,473.00
2023-02-02T00:23:59.214Z,476.00
2023-02-02T00:29:59.518Z,473.00
2023-02-02T00:30:59.577Z,473.00
2023-02-02T00:31:59.645Z,471.00
2023-02-02T00:32:59.671Z,472.00
2023-02-02T00:33:59.719Z,471.00
2023-02-02T00:34:59.756Z,471.00
2023-02-02T00:35:59.801Z,469.00
2023-02-02T00:36:59.853Z,471.00
2023-02-02T00:37:59.893Z,473.00
2023-02-02T00:38:59.915Z,474.00
2023-02-02T00:39:59.961Z,473.00
2023-02-02T00:40:59.963Z,474.00
2023-02-02T00:42:00.049Z,476.00
2023-02-02T00:43:00.098Z,476.00
2023-02-02T00:44:00.101Z,476.00
2023-02-02T00:45:00.129Z,477.00
2023-02-02T00:46:00.194Z,477.00
2023-02-02T00:47:00.212Z,474.00
2023-02-02T00:48:00.248Z,473.00
2023-02-02T00:49:00.285Z,475.00
2023-02-02T00:50:00.337Z,472.00
2023-02-02T00:51:00.379Z,470.00
2023-02-02T00:52:00.444Z,471.00
2023-02-02T00:53:00.475Z,472.00
2023-02-02T00:54:00.525Z,473.00
2023-02-02T00:55:00.553Z,474.00
2023-02-02T00:56:00.593Z,476.00
2023-02-02T00:57:00.621Z,477.00
2023-02-02T00:58:00.669Z,475.00
2023-02-02T00:59:00.753Z,474.00
2023-02-02T01:00:00.789Z,474.00
2023-02-02T01:01:00.874Z,476.00
2023-02-02T01:02:00.944Z,475.00
2023-02-02T01:45:03.382Z,471.00
2023-02-02T01:46:03.453Z,472.00
2023-02-02T01:47:03.453Z,472.00
2023-02-02T01:48:03.510Z,473.00
2023-02-02T01:49:03.530Z,472.00
2023-02-02T01:50:03.563Z,472.00
2023-02-02T01:51:03.643Z,473.00
2023-02-02T01:52:03.652Z,474.00
2023-02-02T02:03:03.905Z,470.00
2023-02-02T02:04:03.985Z,473.00
2023-02-02T02:05:03.904Z,472.00
2023-02-02T02:06:03.954Z,471.00
2023-02-02T02:07:03.933Z,471.00
2023-02-02T02:08:03.932Z,470.00
2023-02-02T02:09:03.937Z,470.00
2023-02-02T02:10:03.927Z,470.00
2023-02-02T02:11:03.969Z,471.00
2023-02-02T02:12:03.967Z,471.00
2023-02-02T02:13:03.923Z,472.00
2023-02-02T02:14:03.942Z,471.00
2023-02-02T02:15:03.916Z,472.00
2023-02-02T02:16:03.969Z,473.00
2023-02-02T02:17:03.916Z,475.00
2023-02-02T02:18:03.974Z,475.00
2023-02-02T02:19:03.897Z,474.00
2023-02-02T02:20:03.954Z,472.00
2023-02-02T02:21:03.929Z,470.00
2023-02-02T02:22:03.889Z,471.00
2023-02-02T02:23:03.973Z,470.00
2023-02-02T02:24:03.944Z,470.00
2023-02-02T02:25:03.950Z,470.00
2023-02-02T02:26:03.967Z,470.00
2023-02-02T02:27:04.038Z,470.00
2023-02-02T02:28:03.986Z,471.00
2023-02-02T02:29:04.040Z,470.00
2023-02-02T02:30:04.053Z,470.00
2023-02-02T02:31:04.217Z,470.00
2023-02-02T02:32:04.132Z,468.00
2023-02-02T02:33:04.163Z,467.00
2023-02-02T02:34:04.204Z,465.00
2023-02-02T02:35:04.254Z,466.00
2023-02-02T02:36:04.316Z,466.00
2023-02-02T02:37:04.409Z,469.00
2023-02-02T02:38:04.446Z,468.00
2023-02-02T02:39:04.512Z,468.00
2023-02-02T02:40:04.571Z,467.00
2023-02-02T02:41:04.612Z,466.00
2023-02-02T02:42:04.675Z,467.00
2023-02-02T02:43:04.754Z,467.00
2023-02-02T02:44:04.811Z,471.00
2023-02-02T02:45:04.865Z,472.00
2023-02-02T02:46:04.998Z,473.00
2023-02-02T02:47:04.978Z,472.00
2023-02-02T02:48:05.065Z,470.00
2023-02-02T02:49:05.140Z,467.00
2023-02-02T02:50:05.164Z,467.00
2023-02-02T02:51:05.217Z,466.00
2023-02-02T02:52:05.297Z,465.00
2023-02-02T02:53:05.361Z,466.00
2023-02-02T02:54:05.384Z,467.00
2023-02-02T02:55:05.450Z,467.00
2023-02-02T03:00:05.722Z,463.00
2023-02-02T03:01:05.796Z,463.00
2023-02-02T03:02:05.833Z,464.00
2023-02-02T03:03:05.920Z,462.00
2023-02-02T03:04:05.934Z,462.00
2023-02-02T03:05:05.986Z,463.00
2023-02-02T03:06:06.031Z,467.00
2023-02-02T03:07:06.099Z,466.00
2023-02-02T03:08:06.161Z,468.00
2023-02-02T03:09:06.229Z,467.00
2023-02-02T03:10:06.277Z,466.00
2023-02-02T03:11:06.319Z,467.00
2023-02-02T03:12:06.355Z,468.00
2023-02-02T03:13:06.438Z,466.00
2023-02-02T03:14:06.454Z,468.00
2023-02-02T03:15:06.548Z,468.00
2023-02-02T03:16:06.576Z,468.00
2023-02-02T03:17:06.629Z,469.00
2023-02-02T06:00:13.310Z,462.00
2023-02-02T06:01:20.356Z,462.00
2023-02-02T06:02:13.386Z,463.00
2023-02-02T06:03:13.503Z,464.00
2023-02-02T06:04:13.366Z,464.00
2023-02-02T06:05:13.346Z,463.00
2023-02-02T06:06:13.343Z,465.00
2023-02-02T06:07:13.319Z,466.00
2023-02-02T06:08:13.324Z,466.00
2023-02-02T06:09:13.291Z,467.00
2023-02-02T06:10:13.304Z,468.00
2023-02-02T06:28:13.356Z,477.00
2023-02-02T06:29:13.336Z,477.00
2023-02-02T06:30:13.361Z,479.00
2023-02-02T06:31:13.470Z,478.00
2023-02-02T06:32:13.401Z,488.00
2023-02-02T06:33:13.878Z,632.00
2023-02-02T06:34:13.468Z,558.00
2023-02-02T06:35:13.463Z,606.00
2023-02-02T06:36:13.531Z,692.00
2023-02-02T06:37:13.557Z,711.00
2023-02-02T06:38:13.891Z,736.00
2023-02-02T06:39:13.895Z,761.00
2023-02-02T06:40:13.652Z,759.00
2023-02-02T06:41:13.740Z,765.00
2023-02-02T06:42:21.401Z,763.00
2023-02-02T06:44:13.701Z,2792.00
2023-02-02T06:45:13.661Z,988.00
2023-02-02T06:47:13.675Z,884.00
2023-02-02T06:48:13.663Z,838.00
2023-02-02T06:49:13.927Z,755.00
2023-02-02T06:50:13.630Z,777.00
2023-02-02T06:51:13.658Z,783.00
2023-02-02T06:52:14.329Z,786.00
2023-02-02T06:53:13.612Z,874.00
2023-02-02T06:54:13.627Z,852.00
2023-02-02T06:55:13.595Z,793.00
2023-02-02T06:56:13.633Z,818.00
2023-02-02T06:57:13.591Z,746.00
2023-02-02T06:58:13.617Z,785.00
2023-02-02T06:59:13.590Z,784.00
2023-02-02T07:00:13.577Z,787.00
2023-02-02T07:01:13.671Z,776.00
2023-02-02T07:02:13.577Z,777.00
2023-02-02T07:03:13.581Z,821.00
2023-02-02T07:04:14.423Z,755.00
2023-02-02T07:05:13.857Z,732.00
2023-02-02T07:06:13.576Z,627.00
2023-02-02T07:07:13.529Z,610.00
2023-02-02T07:08:13.523Z,606.00
2023-02-02T07:09:13.515Z,582.00
2023-02-02T07:11:14.289Z,595.00
2023-02-02T07:11:16.590Z,618.00
2023-02-02T07:12:13.525Z,687.00
2023-02-02T07:14:14.014Z,737.00
2023-02-02T07:15:13.502Z,749.00
2023-02-02T07:16:13.548Z,796.00
2023-02-02T07:17:13.443Z,810.00
2023-02-02T07:18:13.489Z,810.00
2023-02-02T07:19:13.418Z,804.00
2023-02-02T07:20:13.466Z,794.00
2023-02-02T07:21:13.436Z,712.00
2023-02-02T07:22:13.503Z,747.00
2023-02-02T07:23:13.405Z,766.00
2023-02-02T07:24:13.386Z,774.00
2023-02-02T07:25:13.479Z,782.00
2023-02-02T07:26:13.378Z,790.00
2023-02-02T07:27:13.407Z,813.00
2023-02-02T07:28:13.374Z,827.00
2023-02-02T07:29:13.424Z,857.00
2023-02-02T07:30:13.353Z,884.00
2023-02-02T07:31:13.393Z,893.00
2023-02-02T07:32:13.340Z,910.00
2023-02-02T07:33:13.343Z,949.00
2023-02-02T07:34:13.372Z,969.00
2023-02-02T07:35:13.309Z,979.00
2023-02-02T07:36:13.315Z,993.00
2023-02-02T08:10:13.441Z,1074.00
2023-02-02T08:19:12.977Z,1066.00
2023-02-02T08:20:13.009Z,1068.00
2023-02-02T08:21:12.979Z,1077.00
2023-02-02T08:22:12.957Z,1095.00
2023-02-02T08:23:12.989Z,1131.00
2023-02-02T08:24:12.980Z,1189.00
2023-02-02T08:25:13.464Z,1194.00
2023-02-02T08:27:13.344Z,1220.00
2023-02-02T08:28:12.968Z,1232.00
2023-02-02T08:29:12.950Z,1250.00
2023-02-02T08:30:12.958Z,1266.00
2023-02-02T08:31:13.000Z,1300.00
2023-02-02T08:32:12.933Z,1327.00
2023-02-02T08:33:12.908Z,1385.00
2023-02-02T08:34:12.908Z,1375.00
2023-02-02T08:38:13.080Z,1347.00
2023-02-02T08:39:13.923Z,1320.00
2023-02-02T08:40:13.147Z,769.00
2023-02-02T08:41:13.096Z,687.00
2023-02-02T08:42:13.162Z,694.00
2023-02-02T08:44:13.179Z,820.00
2023-02-02T08:46:04.070Z,898.00
2023-02-02T08:46:14.798Z,930.00
2023-02-02T08:47:13.185Z,983.00
2023-02-02T08:48:13.190Z,1044.00
2023-02-02T08:49:13.197Z,1055.00
2023-02-02T08:55:13.502Z,1245.00
2023-02-02T08:58:13.121Z,1312.00
2023-02-02T08:59:13.165Z,1328.00
2023-02-02T09:00:13.155Z,1347.00
2023-02-02T09:01:13.550Z,1387.00
2023-02-02T09:02:13.226Z,1404.00
2023-02-02T09:03:13.205Z,1453.00
2023-02-02T09:04:13.164Z,1460.00
2023-02-02T09:05:13.256Z,1475.00
2023-02-02T09:07:13.393Z,1516.00
2023-02-02T09:08:13.456Z,1534.00
2023-02-02T09:09:13.443Z,1551.00
2023-02-02T09:10:13.494Z,1612.00
2023-02-02T09:11:13.549Z,1628.00
2023-02-02T09:25:14.109Z,1790.00
2023-02-02T09:26:14.176Z,1510.00
2023-02-02T09:27:14.181Z,1214.00
2023-02-02T09:28:14.183Z,1290.00
2023-02-02T09:29:14.252Z,1267.00
2023-02-02T09:30:14.289Z,1083.00
2023-02-02T09:31:14.600Z,1138.00
2023-02-02T09:32:14.369Z,1379.00
2023-02-02T09:33:14.300Z,1201.00
2023-02-02T09:34:14.354Z,758.00
2023-02-02T09:35:14.328Z,717.00
2023-02-02T09:36:14.505Z,713.00
2023-02-02T09:37:14.361Z,686.00
2023-02-02T09:38:14.409Z,681.00
2023-02-02T09:39:14.400Z,677.00
2023-02-02T09:40:14.534Z,616.00
2023-02-02T09:41:14.457Z,595.00
2023-02-02T09:42:15.480Z,581.00
2023-02-02T09:43:14.550Z,571.00
2023-02-02T09:44:14.560Z,564.00
2023-02-02T09:45:14.603Z,564.00
2023-02-02T09:46:14.681Z,565.00
2023-02-02T09:47:14.698Z,561.00
2023-02-02T09:48:14.738Z,552.00
2023-02-02T09:49:14.807Z,541.00
2023-02-02T09:50:14.851Z,535.00
2023-02-02T09:53:14.982Z,603.00
2023-02-02T09:58:15.197Z,728.00
2023-02-02T09:59:20.369Z,726.00
2023-02-02T10:00:16.224Z,732.00
2023-02-02T10:01:15.312Z,798.00
2023-02-02T10:02:15.243Z,911.00
2023-02-02T10:03:15.194Z,920.00
2023-02-02T10:04:15.345Z,940.00
2023-02-02T10:05:15.193Z,973.00
2023-02-02T10:06:15.155Z,997.00
2023-02-02T10:07:15.229Z,1025.00
2023-02-02T10:08:18.456Z,1047.00
2023-02-02T10:09:16.149Z,1080.00
2023-02-02T10:10:17.129Z,1100.00
2023-02-02T10:11:15.510Z,1110.00
2023-02-02T10:12:15.419Z,1122.00
2023-02-02T10:13:15.426Z,1148.00
2023-02-02T10:14:15.460Z,1161.00
2023-02-02T10:15:15.508Z,1179.00
2023-02-02T10:16:16.039Z,1210.00
2023-02-02T10:17:15.588Z,1229.00
2023-02-02T10:18:15.596Z,1249.00
2023-02-02T10:19:15.609Z,1267.00
2023-02-02T10:20:15.626Z,1304.00
2023-02-02T10:21:16.017Z,1320.00
2023-02-02T10:22:15.699Z,1335.00
2023-02-02T10:23:15.767Z,1345.00
2023-02-02T10:24:15.735Z,1357.00
2023-02-02T10:25:15.778Z,1366.00
2023-02-02T10:26:15.850Z,1367.00
2023-02-02T10:27:15.872Z,1188.00
2023-02-02T10:28:15.884Z,1115.00
2023-02-02T10:29:15.941Z,1088.00
2023-02-02T10:30:15.947Z,1074.00
2023-02-02T10:31:16.127Z,1071.00
2023-02-02T10:32:15.987Z,1037.00
2023-02-02T10:33:15.968Z,1001.00
2023-02-02T10:34:15.983Z,940.00
2023-02-02T10:35:16.022Z,940.00
2023-02-02T10:36:16.062Z,933.00
2023-02-02T10:37:16.077Z,924.00
2023-02-02T10:38:16.104Z,915.00
2023-02-02T10:39:16.150Z,899.00
2023-02-02T10:40:16.262Z,885.00
2023-02-02T10:41:16.268Z,877.00
2023-02-02T10:42:16.332Z,875.00
2023-02-02T10:43:16.370Z,795.00
2023-02-02T10:44:16.439Z,718.00
2023-02-02T10:45:16.473Z,613.00
2023-02-02T10:46:16.529Z,590.00
2023-02-02T10:47:16.522Z,574.00
2023-02-02T10:48:16.554Z,579.00
2023-02-02T10:49:16.643Z,602.00
2023-02-02T10:50:16.643Z,623.00
2023-02-02T10:51:17.056Z,707.00
2023-02-02T10:52:16.717Z,741.00
2023-02-02T10:53:16.697Z,749.00
2023-02-02T10:54:16.763Z,808.00
2023-02-02T10:55:16.769Z,824.00
2023-02-02T10:56:16.798Z,896.00
2023-02-02T10:57:17.033Z,912.00
2023-02-02T10:58:17.515Z,934.00
2023-02-02T10:59:16.901Z,969.00
2023-02-02T11:00:16.967Z,986.00
2023-02-02T11:01:17.015Z,998.00
2023-02-02T11:02:21.065Z,1006.00
2023-02-02T11:03:16.973Z,1012.00
2023-02-02T11:04:17.043Z,1024.00
2023-02-02T11:05:16.986Z,1033.00
2023-02-02T11:06:16.993Z,1036.00
2023-02-02T11:07:16.958Z,1043.00
2023-02-02T11:08:16.973Z,1050.00
2023-02-02T11:09:16.970Z,1057.00
2023-02-02T11:10:17.103Z,1065.00
2023-02-02T11:11:16.947Z,1071.00
2023-02-02T11:12:17.040Z,1079.00
2023-02-02T11:13:16.949Z,1086.00
2023-02-02T11:14:16.950Z,1092.00
2023-02-02T11:15:16.906Z,1097.00
2023-02-02T11:16:16.962Z,1098.00
2023-02-02T11:17:17.018Z,1096.00
2023-02-02T11:18:16.871Z,1096.00
2023-02-02T11:19:16.982Z,1095.00
2023-02-02T11:20:16.890Z,1093.00
2023-02-02T11:21:16.837Z,1097.00
2023-02-02T11:22:16.888Z,1102.00
2023-02-02T11:23:16.850Z,1101.00
2023-02-02T11:24:16.825Z,1100.00
2023-02-02T11:25:16.813Z,1101.00
2023-02-02T11:26:16.878Z,1108.00
2023-02-02T11:27:17.019Z,1113.00
2023-02-02T11:28:16.820Z,1111.00
2023-02-02T11:29:16.813Z,1113.00
2023-02-02T11:30:16.802Z,1118.00
2023-02-02T11:31:16.904Z,1122.00
2023-02-02T11:32:17.015Z,1122.00
2023-02-02T11:33:16.839Z,1123.00
2023-02-02T11:34:19.439Z,1125.00
2023-02-02T11:37:17.020Z,1130.00
2023-02-02T11:38:16.853Z,1242.00
2023-02-02T11:39:16.780Z,1254.00
2023-02-02T11:40:16.760Z,1236.00
2023-02-02T11:41:16.713Z,1218.00
2023-02-02T11:42:17.048Z,1213.00
2023-02-02T11:43:16.730Z,1208.00
2023-02-02T11:44:16.695Z,1203.00
2023-02-02T11:45:16.703Z,1196.00
2023-02-02T11:46:16.741Z,1199.00
2023-02-02T11:47:17.021Z,1205.00
2023-02-02T11:48:16.693Z,1212.00
2023-02-02T11:49:16.671Z,1227.00
2023-02-02T11:50:16.627Z,1237.00
2023-02-02T11:51:16.649Z,1251.00
2023-02-02T11:52:16.642Z,1281.00
2023-02-02T11:53:16.659Z,1286.00
2023-02-02T11:54:16.622Z,1293.00
2023-02-02T11:55:16.591Z,1302.00
2023-02-02T11:56:16.602Z,1311.00
2023-02-02T11:57:16.620Z,1321.00
2023-02-02T11:58:16.591Z,1329.00
2023-02-02T11:59:16.614Z,1336.00
2023-02-02T12:00:16.622Z,1342.00
2023-02-02T12:01:16.550Z,1351.00
2023-02-02T12:02:16.640Z,1361.00
2023-02-02T12:03:16.576Z,1368.00
2023-02-02T12:04:16.717Z,1374.00
2023-02-02T12:05:16.573Z,1385.00
2023-02-02T12:06:16.540Z,1397.00
2023-02-02T12:07:16.539Z,1405.00
2023-02-02T12:08:16.527Z,1414.00
2023-02-02T12:09:16.495Z,1421.00
2023-02-02T12:10:16.514Z,1429.00
2023-02-02T12:11:16.479Z,1439.00
2023-02-02T12:12:16.506Z,1450.00
2023-02-02T12:16:16.549Z,1491.00
2023-02-02T12:24:16.406Z,1548.00
2023-02-02T12:26:16.412Z,1551.00
2023-02-02T12:27:16.538Z,1656.00
2023-02-02T12:28:16.376Z,1606.00
2023-02-02T12:29:16.388Z,1583.00
2023-02-02T12:30:16.351Z,1588.00
2023-02-02T12:31:16.484Z,1591.00
2023-02-02T12:32:16.565Z,1591.00
2023-02-02T12:33:16.362Z,1586.00
2023-02-02T12:34:16.345Z,1577.00
2023-02-02T12:35:16.363Z,1558.00
2023-02-02T12:36:16.312Z,1224.00
2023-02-02T12:37:16.542Z,802.00
2023-02-02T12:38:16.303Z,832.00
2023-02-02T12:39:16.309Z,847.00
2023-02-02T12:40:16.306Z,930.00
2023-02-02T12:41:16.309Z,947.00
2023-02-02T12:42:16.339Z,949.00
2023-02-02T12:43:16.382Z,956.00
2023-02-02T12:44:16.425Z,963.00
2023-02-02T12:45:16.521Z,972.00
2023-02-02T12:46:16.757Z,971.00
2023-02-02T12:47:17.067Z,967.00
2023-02-02T12:48:16.624Z,965.00
2023-02-02T12:49:16.630Z,964.00
2023-02-02T12:50:16.668Z,960.00
2023-02-02T12:51:16.678Z,957.00
2023-02-02T12:52:16.661Z,954.00
2023-02-02T12:53:16.664Z,952.00
2023-02-02T12:54:33.521Z,950.00
2023-02-02T12:55:17.665Z,948.00
2023-02-02T12:57:16.684Z,946.00
2023-02-02T12:58:16.619Z,941.00
2023-02-02T12:59:16.639Z,939.00
2023-02-02T13:00:16.647Z,937.00
2023-02-02T13:01:16.648Z,933.00
2023-02-02T13:02:16.595Z,929.00
2023-02-02T13:03:16.574Z,929.00
2023-02-02T13:04:16.621Z,928.00
2023-02-02T13:05:16.584Z,924.00
2023-02-02T13:06:16.730Z,923.00
2023-02-02T13:07:16.746Z,920.00
2023-02-02T13:08:16.803Z,915.00
2023-02-02T13:09:19.653Z,913.00
2023-02-02T13:10:16.879Z,909.00
2023-02-02T13:11:16.816Z,905.00
2023-02-02T13:12:16.826Z,904.00
2023-02-02T13:13:16.830Z,904.00
2023-02-02T13:14:16.787Z,902.00
2023-02-02T13:17:16.758Z,896.00
2023-02-02T13:18:16.762Z,896.00
2023-02-02T13:19:16.779Z,897.00
2023-02-02T13:20:16.739Z,894.00
2023-02-02T13:21:16.745Z,894.00
2023-02-02T13:22:16.761Z,892.00
2023-02-02T13:23:16.761Z,888.00
2023-02-02T13:24:16.710Z,889.00
2023-02-02T13:25:16.759Z,887.00
2023-02-02T13:26:16.826Z,886.00
2023-02-02T13:27:16.763Z,884.00
2023-02-02T13:28:16.732Z,883.00
2023-02-02T13:29:16.712Z,879.00
2023-02-02T13:30:16.650Z,877.00
2023-02-02T13:31:16.797Z,877.00
2023-02-02T13:32:17.570Z,912.00
2023-02-02T13:33:16.674Z,898.00
2023-02-02T13:34:16.645Z,894.00
2023-02-02T13:35:16.667Z,890.00
2023-02-02T13:36:16.641Z,888.00
2023-02-02T13:37:17.559Z,886.00
2023-02-02T13:38:16.650Z,885.00
2023-02-02T13:39:16.618Z,884.00
2023-02-02T13:40:16.614Z,883.00
2023-02-02T13:41:16.624Z,883.00
2023-02-02T13:42:16.620Z,882.00
2023-02-02T13:43:16.766Z,880.00
2023-02-02T13:44:16.615Z,877.00
2023-02-02T13:45:16.689Z,874.00
2023-02-02T13:46:16.800Z,872.00
2023-02-02T13:47:17.566Z,869.00
2023-02-02T13:48:16.857Z,866.00
2023-02-02T13:49:16.963Z,862.00
2023-02-02T13:50:16.989Z,863.00
2023-02-02T13:51:17.044Z,860.00
2023-02-02T13:52:17.092Z,855.00
2023-02-02T13:53:17.147Z,853.00
2023-02-02T13:54:17.209Z,850.00
2023-02-02T13:55:17.264Z,846.00
2023-02-02T13:56:17.325Z,846.00
2023-02-02T13:57:17.353Z,843.00
2023-02-02T13:58:17.443Z,840.00
2023-02-02T13:59:17.505Z,838.00
2023-02-02T14:00:17.548Z,837.00
2023-02-02T14:01:17.623Z,837.00
2023-02-02T14:02:17.676Z,832.00
2023-02-02T14:03:17.739Z,829.00
2023-02-02T14:04:17.773Z,827.00
2023-02-02T14:05:17.810Z,824.00
2023-02-02T14:06:17.900Z,821.00
2023-02-02T14:07:17.933Z,818.00
2023-02-02T14:08:18.049Z,816.00
2023-02-02T14:09:18.048Z,815.00
2023-02-02T14:10:18.198Z,815.00
2023-02-02T14:11:18.167Z,811.00
2023-02-02T14:12:18.243Z,811.00
2023-02-02T14:13:18.318Z,810.00
2023-02-02T14:14:18.366Z,807.00
2023-02-02T14:15:18.432Z,801.00
2023-02-02T14:16:18.533Z,800.00
2023-02-02T14:17:18.520Z,801.00
2023-02-02T14:18:18.600Z,799.00
2023-02-02T14:19:18.634Z,797.00
2023-02-02T14:20:18.667Z,797.00
2023-02-02T14:21:18.711Z,798.00
2023-02-02T14:22:18.752Z,797.00
2023-02-02T14:23:18.840Z,792.00
2023-02-02T14:24:18.939Z,791.00
2023-02-02T14:25:18.969Z,789.00
2023-02-02T14:26:19.137Z,788.00
2023-02-02T14:27:19.167Z,788.00
2023-02-02T14:28:19.126Z,788.00
2023-02-02T14:29:19.160Z,787.00
2023-02-02T14:30:19.249Z,787.00
2023-02-02T14:31:19.343Z,784.00
2023-02-02T14:32:19.366Z,783.00
2023-02-02T14:33:19.401Z,780.00
2023-02-02T14:34:19.482Z,778.00
2023-02-02T14:35:19.543Z,777.00
2023-02-02T14:36:19.611Z,775.00
2023-02-02T14:37:19.671Z,774.00
2023-02-02T14:38:19.711Z,772.00
2023-02-02T14:39:19.772Z,772.00
2023-02-02T14:40:19.863Z,768.00
2023-02-02T14:41:19.883Z,761.00
2023-02-02T14:42:19.949Z,760.00
2023-02-02T14:43:19.984Z,758.00
2023-02-02T14:44:20.065Z,757.00
2023-02-02T14:45:20.111Z,753.00
2023-02-02T14:46:20.185Z,752.00
2023-02-02T14:47:20.201Z,750.00
2023-02-02T14:48:20.303Z,748.00
2023-02-02T14:49:20.343Z,749.00
2023-02-02T14:50:20.410Z,750.00
2023-02-02T14:51:20.442Z,751.00
2023-02-02T14:52:20.498Z,749.00
2023-02-02T14:53:20.582Z,749.00
2023-02-02T14:54:20.640Z,747.00
2023-02-02T14:55:20.725Z,745.00
2023-02-02T14:56:20.763Z,741.00
2023-02-02T14:57:20.818Z,737.00
2023-02-02T14:58:20.887Z,736.00
2023-02-02T14:59:20.976Z,735.00
2023-02-02T15:00:21.035Z,732.00
2023-02-02T15:01:21.114Z,730.00
2023-02-02T15:02:21.219Z,727.00
2023-02-02T15:03:21.194Z,722.00
2023-02-02T15:04:21.282Z,719.00
2023-02-02T15:05:21.334Z,718.00
2023-02-02T15:06:21.366Z,719.00
2023-02-02T15:07:21.446Z,730.00
2023-02-02T15:08:21.466Z,777.00
2023-02-02T15:09:21.479Z,803.00
2023-02-02T15:10:21.496Z,798.00
2023-02-02T15:11:21.511Z,792.00
2023-02-02T15:12:21.492Z,785.00
2023-02-02T15:13:21.487Z,780.00
2023-02-02T15:14:21.485Z,778.00
2023-02-02T15:15:21.530Z,778.00
2023-02-02T15:16:21.585Z,776.00
2023-02-02T15:17:21.608Z,774.00
2023-02-02T15:18:21.677Z,771.00
2023-02-02T15:19:21.730Z,770.00
2023-02-02T15:20:21.766Z,766.00
2023-02-02T15:21:21.862Z,762.00
2023-02-02T15:22:21.891Z,760.00
2023-02-02T15:23:21.960Z,756.00
2023-02-02T15:24:22.009Z,756.00
2023-02-02T15:25:22.124Z,758.00
2023-02-02T15:26:22.282Z,759.00
2023-02-02T15:27:22.228Z,754.00
2023-02-02T15:28:22.298Z,751.00
2023-02-02T15:29:22.340Z,751.00
2023-02-02T15:30:22.423Z,751.00
2023-02-02T15:31:22.558Z,749.00
2023-02-02T15:32:22.589Z,747.00
2023-02-02T15:33:22.595Z,744.00
2023-02-02T15:34:22.688Z,744.00
2023-02-02T15:35:22.853Z,742.00
2023-02-02T15:36:22.825Z,740.00
2023-02-02T15:37:22.890Z,739.00
2023-02-02T15:38:22.919Z,737.00
2023-02-02T15:39:22.995Z,736.00
2023-02-02T15:40:23.049Z,733.00
2023-02-02T15:41:23.105Z,731.00
2023-02-02T15:42:23.172Z,728.00
2023-02-02T15:43:23.189Z,727.00
2023-02-02T15:44:23.292Z,725.00
2023-02-02T15:45:23.304Z,723.00
2023-02-02T15:46:23.402Z,723.00
2023-02-02T15:47:23.408Z,724.00
2023-02-02T15:48:23.501Z,720.00
2023-02-02T15:49:33.782Z,720.00
2023-02-02T15:50:24.541Z,720.00
2023-02-02T15:51:23.550Z,720.00
2023-02-02T15:52:23.583Z,715.00
2023-02-02T15:53:23.535Z,713.00
2023-02-02T15:54:23.509Z,710.00
2023-02-02T15:55:23.906Z,710.00
2023-02-02T15:56:23.473Z,707.00
2023-02-02T15:57:23.527Z,706.00
2023-02-02T15:58:23.539Z,702.00
2023-02-02T15:59:23.541Z,699.00
2023-02-02T16:00:23.595Z,695.00
2023-02-02T16:01:23.612Z,690.00
2023-02-02T16:02:23.662Z,691.00
2023-02-02T16:03:23.720Z,690.00
2023-02-02T16:04:23.770Z,686.00
2023-02-02T16:05:24.400Z,685.00
2023-02-02T16:06:23.733Z,684.00
2023-02-02T16:07:23.797Z,683.00
2023-02-02T16:08:23.850Z,680.00
2023-02-02T16:09:23.819Z,681.00
2023-02-02T16:10:23.796Z,680.00
2023-02-02T16:11:23.830Z,681.00
2023-02-02T16:12:23.802Z,681.00
2023-02-02T16:13:23.839Z,680.00
2023-02-02T16:14:23.875Z,676.00
2023-02-02T16:15:24.084Z,674.00
2023-02-02T16:16:23.877Z,672.00
2023-02-02T16:17:23.804Z,670.00
2023-02-02T16:18:23.821Z,670.00
2023-02-02T16:19:23.817Z,669.00
2023-02-02T16:20:23.833Z,666.00
2023-02-02T16:21:23.845Z,666.00
2023-02-02T16:22:23.802Z,665.00
2023-02-02T16:23:23.881Z,662.00
2023-02-02T16:24:23.816Z,664.00
2023-02-02T16:25:24.072Z,665.00
2023-02-02T16:26:23.864Z,664.00
2023-02-02T16:27:23.783Z,665.00
2023-02-02T16:28:23.778Z,663.00
2023-02-02T16:29:23.802Z,662.00
2023-02-02T16:30:23.792Z,659.00
2023-02-02T16:31:23.829Z,657.00
2023-02-02T16:32:23.784Z,657.00
2023-02-02T16:33:23.804Z,657.00
2023-02-02T16:34:23.751Z,655.00
2023-02-02T16:35:24.223Z,654.00
2023-02-02T16:36:25.581Z,655.00
2023-02-02T16:37:23.807Z,653.00
2023-02-02T16:38:23.811Z,655.00
2023-02-02T16:39:23.846Z,654.00
2023-02-02T16:40:24.761Z,651.00
2023-02-02T16:41:23.808Z,649.00
2023-02-02T16:42:23.841Z,648.00
2023-02-02T16:43:23.818Z,646.00
2023-02-02T16:44:23.782Z,644.00
2023-02-02T16:45:24.151Z,643.00
2023-02-02T16:46:23.841Z,642.00
2023-02-02T16:47:23.831Z,640.00
2023-02-02T16:48:23.829Z,639.00
2023-02-02T16:49:23.780Z,639.00
2023-02-02T16:50:23.736Z,640.00
2023-02-02T16:51:23.742Z,641.00
2023-02-02T16:52:23.805Z,641.00
2023-02-02T16:53:23.796Z,643.00
2023-02-02T16:54:23.756Z,642.00
2023-02-02T16:55:24.189Z,643.00
2023-02-02T16:56:23.763Z,645.00
2023-02-02T16:57:23.763Z,644.00
2023-02-02T16:58:23.843Z,640.00
2023-02-02T16:59:23.773Z,637.00
2023-02-02T17:00:23.741Z,636.00
2023-02-02T17:01:23.760Z,633.00
2023-02-02T17:02:23.803Z,631.00
2023-02-02T17:03:23.740Z,630.00
2023-02-02T17:04:23.774Z,630.00
2023-02-02T17:05:24.082Z,632.00
2023-02-02T17:06:23.785Z,630.00
2023-02-02T17:07:23.740Z,626.00
2023-02-02T17:08:23.757Z,625.00
2023-02-02T17:09:23.826Z,629.00
2023-02-02T17:10:23.748Z,630.00
2023-02-02T17:11:23.812Z,628.00
2023-02-02T17:12:33.865Z,627.00
2023-02-02T17:13:24.750Z,626.00
2023-02-02T17:14:23.752Z,623.00
2023-02-02T17:15:24.202Z,622.00
2023-02-02T17:16:23.737Z,622.00
2023-02-02T17:17:24.062Z,621.00
2023-02-02T17:18:24.086Z,618.00
2023-02-02T17:19:23.714Z,617.00
2023-02-02T17:20:23.710Z,617.00
2023-02-02T17:21:23.703Z,616.00
2023-02-02T17:22:23.728Z,615.00
2023-02-02T17:23:23.699Z,616.00
2023-02-02T17:24:23.678Z,615.00
2023-02-02T17:25:23.968Z,616.00
2023-02-02T17:26:23.688Z,609.00
2023-02-02T17:27:23.661Z,608.00
2023-02-02T17:28:23.643Z,606.00
2023-02-02T17:29:23.648Z,606.00
2023-02-02T17:30:23.620Z,607.00
2023-02-02T17:31:23.728Z,608.00
2023-02-02T17:32:23.628Z,607.00
2023-02-02T17:33:23.612Z,604.00
2023-02-02T17:34:23.602Z,600.00
2023-02-02T17:35:23.881Z,600.00
2023-02-02T17:36:23.579Z,599.00
2023-02-02T17:37:23.592Z,598.00
2023-02-02T17:38:23.590Z,595.00
2023-02-02T17:39:23.555Z,594.00
2023-02-02T17:40:24.100Z,597.00
2023-02-02T17:41:23.617Z,595.00
2023-02-02T17:42:23.641Z,593.00
2023-02-02T17:43:23.668Z,589.00
2023-02-02T17:44:23.656Z,589.00
2023-02-02T17:45:24.011Z,588.00
2023-02-02T17:46:23.754Z,587.00
2023-02-02T17:47:23.724Z,589.00
2023-02-02T17:48:23.767Z,586.00
2023-02-02T17:49:23.772Z,585.00
2023-02-02T17:50:24.192Z,584.00
2023-02-02T17:51:23.816Z,583.00
2023-02-02T17:52:23.833Z,582.00
2023-02-02T17:53:23.849Z,579.00
2023-02-02T17:54:23.907Z,575.00
2023-02-02T17:55:24.241Z,575.00
2023-02-02T17:56:23.941Z,577.00